createdAt,value
2018-04-11T00:00:02.996Z,5.50
2018-04-11T00:02:30.513Z,5.40
2018-04-11T00:04:58.056Z,5.30
2018-04-11T00:07:25.590Z,5.30
2018-04-11T00:09:53.141Z,5.30
2018-04-11T00:12:20.655Z,5.30
2018-04-11T00:14:48.192Z,5.20
2018-04-11T00:17:15.724Z,5.10
2018-04-11T00:19:43.249Z,5.10
2018-04-11T00:22:11.566Z,5.10
2018-04-11T00:24:39.087Z,5.10
2018-04-11T00:27:06.633Z,5.00
2018-04-11T00:29:34.166Z,5.00
2018-04-11T00:32:01.727Z,5.00
2018-04-11T00:34:30.012Z,4.90
2018-04-11T00:36:57.532Z,4.90
2018-04-11T00:39:25.076Z,4.80
2018-04-11T00:41:53.557Z,4.70
2018-04-11T00:44:21.101Z,4.80
2018-04-11T00:46:48.624Z,4.80
2018-04-11T00:49:16.174Z,4.80
2018-04-11T00:51:43.693Z,4.80
2018-04-11T00:54:11.206Z,4.90
2018-04-11T00:56:39.518Z,4.80
2018-04-11T00:59:07.037Z,4.80
2018-04-11T01:01:35.560Z,4.70
2018-04-11T01:04:03.082Z,4.50
2018-04-11T01:06:33.312Z,4.40
2018-04-11T01:09:00.820Z,4.40
2018-04-11T01:11:28.350Z,4.40
2018-04-11T01:13:55.890Z,4.30
2018-04-11T01:16:23.408Z,4.40
2018-04-11T01:18:51.724Z,4.30
2018-04-11T01:21:19.232Z,4.30
2018-04-11T01:23:46.781Z,4.30
2018-04-11T01:26:14.300Z,4.20
2018-04-11T01:28:43.844Z,4.10
2018-04-11T01:31:11.370Z,4.10
2018-04-11T01:33:38.888Z,4.20
2018-04-11T01:36:06.432Z,4.20
2018-04-11T01:38:33.957Z,4.30
2018-04-11T01:41:01.505Z,4.30
2018-04-11T01:43:29.028Z,4.30
2018-04-11T01:45:56.564Z,4.30
2018-04-11T01:48:24.091Z,4.30
2018-04-11T01:50:51.608Z,4.30
2018-04-11T01:53:19.153Z,4.30
2018-04-11T01:55:47.434Z,4.30
2018-04-11T01:58:14.977Z,4.30
2018-04-11T02:00:42.504Z,4.20
2018-04-11T02:03:10.049Z,4.20
2018-04-11T02:05:37.581Z,4.10
2018-04-11T02:08:05.102Z,4.20
2018-04-11T02:10:32.660Z,4.20
2018-04-11T02:13:00.169Z,4.20
2018-04-11T02:15:27.722Z,4.20
2018-04-11T02:17:56.011Z,4.20
2018-04-11T02:20:23.560Z,4.10
2018-04-11T02:22:51.836Z,4.20
2018-04-11T02:25:20.124Z,4.10
2018-04-11T02:27:47.671Z,4.10
2018-04-11T02:30:15.200Z,4.10
2018-04-11T02:32:44.493Z,4.10
2018-04-11T02:35:12.023Z,4.10
2018-04-11T02:37:39.572Z,4.10
2018-04-11T02:40:08.069Z,4.10
2018-04-11T02:42:35.584Z,4.00
2018-04-11T02:45:05.845Z,4.00
2018-04-11T02:47:33.368Z,4.00
2018-04-11T02:50:00.905Z,4.00
2018-04-11T02:52:29.231Z,3.90
2018-04-11T02:54:56.757Z,3.80
2018-04-11T02:57:24.299Z,3.90
2018-04-11T02:59:51.847Z,3.90
2018-04-11T03:02:19.389Z,3.90
2018-04-11T03:04:46.933Z,3.80
2018-04-11T03:07:14.467Z,3.90
2018-04-11T03:09:41.988Z,3.80
2018-04-11T03:12:10.466Z,3.80
2018-04-11T03:14:38.037Z,3.80
2018-04-11T03:17:05.564Z,3.70
2018-04-11T03:19:33.077Z,3.70
2018-04-11T03:22:00.587Z,3.70
2018-04-11T03:24:28.128Z,3.70
2018-04-11T03:27:03.233Z,3.70
2018-04-11T03:29:31.619Z,3.80
2018-04-11T03:31:59.151Z,3.80
2018-04-11T03:34:27.665Z,3.80
2018-04-11T03:36:55.209Z,3.80
2018-04-11T03:39:22.728Z,3.80
2018-04-11T03:41:50.244Z,3.80
2018-04-11T03:44:18.768Z,3.70
2018-04-11T03:46:47.254Z,3.80
2018-04-11T03:49:15.552Z,3.70
2018-04-11T03:51:43.842Z,3.70
2018-04-11T03:54:11.364Z,3.70
2018-04-11T03:56:38.900Z,3.70
2018-04-11T03:59:06.415Z,3.70
2018-04-11T04:01:33.980Z,3.80
2018-04-11T04:04:01.497Z,3.70
2018-04-11T04:06:29.009Z,3.60
2018-04-11T04:08:56.555Z,3.60
2018-04-11T04:11:24.068Z,3.50
2018-04-11T04:14:03.476Z,3.50
2018-04-11T04:16:42.840Z,3.50
2018-04-11T04:19:22.280Z,3.50
2018-04-11T04:21:49.804Z,3.50
2018-04-11T04:24:17.320Z,3.50
2018-04-11T04:26:45.664Z,3.50
2018-04-11T04:29:13.178Z,3.40
2018-04-11T04:31:41.690Z,3.40
2018-04-11T04:34:09.208Z,3.50
2018-04-11T04:36:36.729Z,3.40
2018-04-11T04:39:04.273Z,3.50
2018-04-11T04:41:31.801Z,3.60
2018-04-11T04:43:59.342Z,3.70
2018-04-11T04:46:26.864Z,3.70
2018-04-11T04:48:54.373Z,3.70
2018-04-11T04:51:21.916Z,3.70
2018-04-11T04:53:49.441Z,3.60
2018-04-11T04:56:17.004Z,3.60
2018-04-11T04:58:44.525Z,3.60
2018-04-11T05:01:12.036Z,3.50
2018-04-11T05:03:39.572Z,3.50
2018-04-11T05:06:07.093Z,3.50
2018-04-11T05:08:34.649Z,3.40
2018-04-11T05:11:02.170Z,3.50
2018-04-11T05:13:30.453Z,3.60
2018-04-11T05:15:58.003Z,3.60
2018-04-11T05:18:25.516Z,3.60
2018-04-11T05:20:53.065Z,3.70
2018-04-11T05:23:20.591Z,3.70
2018-04-11T05:25:48.109Z,3.80
2018-04-11T05:28:15.654Z,3.80
2018-04-11T05:30:43.177Z,3.70
2018-04-11T05:33:10.723Z,3.80
2018-04-11T05:35:38.236Z,4.00
2018-04-11T05:38:05.757Z,4.10
2018-04-11T05:40:33.669Z,4.30
2018-04-11T05:43:01.952Z,4.60
2018-04-11T05:45:29.936Z,4.50
2018-04-11T05:47:58.341Z,4.70
2018-04-11T05:50:26.100Z,4.90
2018-04-11T05:52:53.693Z,5.10
2018-04-11T05:55:21.218Z,5.20
2018-04-11T05:57:48.774Z,5.40
2018-04-11T06:00:16.298Z,5.60
2018-04-11T06:02:44.801Z,6.00
2018-04-11T06:05:13.117Z,6.40
2018-04-11T06:07:40.632Z,6.40
2018-04-11T06:10:09.162Z,6.40
2018-04-11T06:12:36.690Z,6.40
2018-04-11T06:15:04.243Z,6.50
2018-04-11T06:17:32.543Z,6.60
2018-04-11T06:20:00.064Z,6.60
2018-04-11T06:22:27.613Z,6.70
2018-04-11T06:24:55.133Z,6.70
2018-04-11T06:27:22.693Z,6.80
2018-04-11T06:29:50.217Z,7.00
2018-04-11T06:32:17.766Z,7.20
2018-04-11T06:34:45.297Z,7.30
2018-04-11T06:37:13.578Z,7.50
2018-04-11T06:39:41.128Z,7.50
2018-04-11T06:42:08.691Z,7.70
2018-04-11T06:44:36.232Z,7.90
2018-04-11T06:47:03.759Z,8.00
2018-04-11T06:49:31.311Z,8.10
2018-04-11T06:51:58.878Z,8.20
2018-04-11T06:54:26.426Z,8.40
2018-04-11T06:56:53.978Z,8.50
2018-04-11T06:59:21.496Z,8.60
2018-04-11T07:01:49.054Z,8.80
2018-04-11T07:04:17.540Z,9.00
2018-04-11T07:06:45.068Z,9.10
2018-04-11T07:09:12.611Z,9.30
2018-04-11T07:11:40.138Z,9.30
2018-04-11T07:14:08.468Z,9.70
2018-04-11T07:16:35.994Z,9.60
2018-04-11T07:19:03.544Z,9.90
2018-04-11T07:21:31.077Z,10.00
2018-04-11T07:23:59.552Z,10.00
2018-04-11T07:26:28.096Z,10.10
2018-04-11T07:28:55.645Z,10.30
2018-04-11T07:31:23.213Z,10.40
2018-04-11T07:33:51.746Z,10.60
2018-04-11T07:36:19.269Z,10.40
2018-04-11T07:38:47.764Z,10.70
2018-04-11T07:41:15.441Z,11.00
2018-04-11T07:43:43.760Z,11.40
2018-04-11T07:46:11.380Z,11.40
2018-04-11T07:48:38.886Z,11.60
2018-04-11T07:51:07.359Z,11.80
2018-04-11T07:53:34.898Z,12.00
2018-04-11T07:56:03.353Z,12.30
2018-04-11T07:58:30.881Z,12.20
2018-04-11T08:00:59.440Z,12.40
2018-04-11T08:03:26.983Z,12.50
2018-04-11T08:05:54.601Z,12.60
2018-04-11T08:08:22.134Z,12.40
2018-04-11T08:10:49.684Z,12.00
2018-04-11T08:13:17.232Z,11.90
2018-04-11T08:15:44.760Z,12.40
2018-04-11T08:18:12.305Z,12.70
2018-04-11T08:20:39.836Z,12.90
2018-04-11T08:23:07.391Z,12.90
2018-04-11T08:25:34.913Z,13.00
2018-04-11T08:28:03.424Z,13.40
2018-04-11T08:30:30.949Z,13.60
2018-04-11T08:32:58.477Z,13.40
2018-04-11T08:35:26.791Z,13.70
2018-04-11T08:37:54.317Z,13.70
2018-04-11T08:40:21.868Z,14.00
2018-04-11T08:42:49.388Z,14.00
2018-04-11T08:45:17.037Z,14.20
2018-04-11T08:47:44.560Z,14.00
2018-04-11T08:50:12.855Z,14.30
2018-04-11T08:52:40.415Z,14.30
2018-04-11T08:55:07.939Z,14.50
2018-04-11T08:57:35.498Z,14.70
2018-04-11T09:00:03.031Z,14.90
2018-04-11T09:02:32.520Z,15.10
2018-04-11T09:05:00.044Z,14.80
2018-04-11T09:07:28.335Z,15.10
2018-04-11T09:09:55.881Z,15.10
2018-04-11T09:12:24.169Z,15.50
2018-04-11T09:14:51.712Z,15.40
2018-04-11T09:17:20.007Z,15.70
2018-04-11T09:19:49.510Z,15.70
2018-04-11T09:22:17.030Z,15.80
2018-04-11T09:24:44.553Z,15.90
2018-04-11T09:27:12.113Z,16.00
2018-04-11T09:29:39.644Z,15.90
2018-04-11T09:32:07.189Z,16.00
2018-04-11T09:34:34.712Z,16.00
2018-04-11T09:37:02.242Z,16.10
2018-04-11T09:39:29.788Z,16.40
2018-04-11T09:41:57.324Z,16.40
2018-04-11T09:44:24.885Z,16.40
2018-04-11T09:46:53.173Z,16.90
2018-04-11T09:49:20.754Z,16.90
2018-04-11T09:51:48.312Z,16.90
2018-04-11T09:54:15.836Z,17.00
2018-04-11T09:56:44.164Z,17.00
2018-04-11T09:59:11.678Z,17.00
2018-04-11T10:01:44.920Z,17.00
2018-04-11T10:04:12.993Z,17.10
2018-04-11T10:06:41.489Z,17.20
2018-04-11T10:09:09.038Z,17.20
2018-04-11T10:11:36.561Z,17.10
2018-04-11T10:14:04.112Z,17.10
2018-04-11T10:16:31.634Z,17.30
2018-04-11T10:18:59.172Z,17.50
2018-04-11T10:21:26.726Z,17.60
2018-04-11T10:23:54.246Z,17.60
2018-04-11T10:26:21.813Z,17.70
2018-04-11T10:28:49.330Z,17.50
2018-04-11T10:31:17.826Z,17.20
2018-04-11T10:33:48.140Z,17.30
2018-04-11T10:36:16.424Z,17.30
2018-04-11T10:38:43.973Z,17.30
2018-04-11T10:41:12.267Z,17.30
2018-04-11T10:43:39.822Z,17.30
2018-04-11T10:46:07.373Z,17.10
2018-04-11T10:48:35.677Z,17.80
2018-04-11T10:51:04.182Z,17.80
2018-04-11T10:53:31.717Z,18.00
2018-04-11T10:55:59.269Z,18.00
2018-04-11T10:58:26.790Z,18.10
2018-04-11T11:00:54.321Z,18.20
2018-04-11T11:03:21.874Z,18.00
2018-04-11T11:05:49.400Z,17.80
2018-04-11T11:08:16.949Z,18.20
2018-04-11T11:10:44.477Z,18.50
2018-04-11T11:13:11.998Z,18.60
2018-04-11T11:15:39.557Z,18.50
2018-04-11T11:18:07.078Z,18.50
2018-04-11T11:20:36.552Z,18.20
2018-04-11T11:23:04.073Z,18.60
2018-04-11T11:25:31.604Z,18.60
2018-04-11T11:27:59.152Z,18.10
2018-04-11T11:30:28.390Z,17.80
2018-04-11T11:32:57.896Z,17.80
2018-04-11T11:35:25.426Z,18.50
2018-04-11T11:37:52.987Z,19.10
2018-04-11T11:40:20.510Z,18.90
2018-04-11T11:42:48.045Z,19.10
2018-04-11T11:45:15.593Z,19.20
2018-04-11T11:47:43.115Z,19.50
2018-04-11T11:50:11.663Z,19.50
2018-04-11T11:52:39.952Z,20.30
2018-04-11T11:55:07.505Z,20.30
2018-04-11T11:57:35.025Z,20.20
2018-04-11T12:00:02.554Z,20.00
2018-04-11T12:02:30.225Z,20.00
2018-04-11T12:04:57.803Z,19.80
2018-04-11T12:07:25.332Z,19.80
2018-04-11T12:09:53.629Z,19.80
2018-04-11T12:12:21.176Z,19.80
2018-04-11T12:14:48.809Z,19.80
2018-04-11T12:17:17.105Z,19.50
2018-04-11T12:19:45.416Z,19.30
2018-04-11T12:22:12.948Z,19.30
2018-04-11T12:24:40.506Z,19.50
2018-04-11T12:27:08.028Z,19.50
2018-04-11T12:29:35.665Z,19.60
2018-04-11T12:32:03.243Z,19.40
2018-04-11T12:34:30.776Z,19.40
2018-04-11T12:36:58.962Z,19.40
2018-04-11T12:39:26.481Z,19.00
2018-04-11T12:41:54.037Z,18.90
2018-04-11T12:44:21.565Z,19.20
2018-04-11T12:46:49.124Z,19.70
2018-04-11T12:49:17.426Z,20.20
2018-04-11T12:51:45.109Z,20.10
2018-04-11T12:54:12.667Z,20.50
2018-04-11T12:56:45.288Z,20.70
2018-04-11T12:59:12.865Z,20.60
2018-04-11T13:01:40.391Z,21.30
2018-04-11T13:04:07.945Z,21.60
2018-04-11T13:06:35.465Z,21.40
2018-04-11T13:09:03.972Z,21.60
2018-04-11T13:11:31.532Z,21.90
2018-04-11T13:14:00.006Z,21.80
2018-04-11T13:16:27.558Z,20.90
2018-04-11T13:18:55.105Z,21.30
2018-04-11T13:21:22.971Z,21.30
2018-04-11T13:23:53.342Z,21.30
2018-04-11T13:26:21.812Z,21.00
2018-04-11T13:28:49.368Z,21.10
2018-04-11T13:31:16.912Z,21.10
2018-04-11T13:33:44.753Z,21.30
2018-04-11T13:36:13.179Z,21.60
2018-04-11T13:38:40.737Z,21.60
2018-04-11T13:41:08.261Z,21.90
2018-04-11T13:43:35.813Z,22.40
2018-04-11T13:46:03.374Z,21.90
2018-04-11T13:48:30.897Z,21.70
2018-04-11T13:50:58.453Z,22.00
2018-04-11T13:53:25.989Z,21.80
2018-04-11T13:55:53.540Z,22.30
2018-04-11T13:58:21.059Z,21.90
2018-04-11T14:00:48.595Z,21.90
2018-04-11T14:03:16.938Z,21.40
2018-04-11T14:05:44.467Z,21.40
2018-04-11T14:08:12.017Z,21.40
2018-04-11T14:10:39.553Z,21.40
2018-04-11T14:13:07.875Z,21.80
2018-04-11T14:15:35.398Z,21.80
2018-04-11T14:18:04.656Z,20.60
2018-04-11T14:20:32.201Z,20.60
2018-04-11T14:22:59.730Z,20.40
2018-04-11T14:25:27.356Z,20.80
2018-04-11T14:27:54.825Z,20.90
2018-04-11T14:30:23.134Z,21.60
2018-04-11T14:32:51.608Z,21.50
2018-04-11T14:35:20.098Z,21.60
2018-04-11T14:37:47.646Z,22.20
2018-04-11T14:40:15.168Z,22.10
2018-04-11T14:42:42.718Z,21.50
2018-04-11T14:45:11.004Z,21.50
2018-04-11T14:47:39.320Z,21.80
2018-04-11T14:50:06.839Z,21.80
2018-04-11T14:52:34.357Z,21.80
2018-04-11T14:55:01.933Z,21.20
2018-04-11T14:57:29.479Z,20.40
2018-04-11T14:59:57.033Z,20.10
2018-04-11T15:02:24.545Z,19.90
2018-04-11T15:04:52.084Z,20.20
2018-04-11T15:07:19.636Z,19.80
2018-04-11T15:09:48.085Z,20.20
2018-04-11T15:12:15.690Z,20.20
2018-04-11T15:14:44.173Z,21.10
2018-04-11T15:17:12.512Z,21.70
2018-04-11T15:19:40.058Z,21.70
2018-04-11T15:22:07.579Z,21.30
2018-04-11T15:24:35.904Z,21.40
2018-04-11T15:27:03.469Z,21.40
2018-04-11T15:29:31.016Z,23.70
2018-04-11T15:31:58.537Z,25.60
2018-04-11T15:34:26.859Z,24.40
2018-04-11T15:36:54.430Z,24.40
2018-04-11T15:39:21.953Z,24.70
2018-04-11T15:41:49.517Z,22.90
2018-04-11T15:44:17.035Z,21.60
2018-04-11T15:46:44.595Z,21.50
2018-04-11T15:49:12.121Z,22.40
2018-04-11T15:51:39.641Z,22.90
2018-04-11T15:54:09.145Z,22.30
2018-04-11T15:56:36.676Z,22.40
2018-04-11T15:59:04.976Z,22.00
2018-04-11T16:01:32.544Z,22.00
2018-04-11T16:04:00.089Z,21.80
2018-04-11T16:06:28.397Z,20.90
2018-04-11T16:08:55.910Z,20.80
2018-04-11T16:11:24.229Z,20.80
2018-04-11T16:13:51.761Z,20.80
2018-04-11T16:16:22.029Z,20.10
2018-04-11T16:18:49.558Z,20.00
2018-04-11T16:21:17.110Z,19.50
2018-04-11T16:23:44.753Z,19.50
2018-04-11T16:26:13.039Z,19.50
2018-04-11T16:28:40.586Z,19.50
2018-04-11T16:31:08.887Z,19.80
2018-04-11T16:33:36.437Z,19.80
2018-04-11T16:36:04.739Z,19.90
2018-04-11T16:38:32.371Z,19.90
2018-04-11T16:40:59.878Z,20.00
2018-04-11T16:43:27.403Z,20.00
2018-04-11T16:45:56.907Z,20.10
2018-04-11T16:48:24.429Z,20.10
2018-04-11T16:50:51.978Z,20.10
2018-04-11T16:53:19.492Z,20.10
2018-04-11T16:55:47.047Z,20.00
2018-04-11T16:58:14.562Z,19.70
2018-04-11T17:00:42.786Z,19.70
2018-04-11T17:03:12.253Z,19.70
2018-04-11T17:05:39.770Z,19.70
2018-04-11T17:08:07.308Z,19.50
2018-04-11T17:10:34.838Z,19.30
2018-04-11T17:13:04.404Z,19.30
2018-04-11T17:15:31.934Z,19.20
2018-04-11T17:17:59.448Z,19.20
2018-04-11T17:20:40.609Z,18.90
2018-04-11T17:23:20.790Z,18.70
2018-04-11T17:26:00.092Z,18.70
2018-04-11T17:28:40.459Z,18.60
2018-04-11T17:31:29.641Z,18.50
2018-04-11T17:33:57.951Z,18.00
2018-04-11T17:36:26.484Z,18.00
2018-04-11T17:38:54.004Z,17.90
2018-04-11T17:41:21.578Z,17.80
2018-04-11T17:43:49.115Z,17.80
2018-04-11T17:46:16.641Z,17.70
2018-04-11T17:48:44.186Z,17.50
2018-04-11T17:51:11.708Z,17.30
2018-04-11T17:53:39.257Z,17.10
2018-04-11T17:56:06.781Z,17.00
2018-04-11T17:58:35.096Z,16.70
2018-04-11T18:01:03.605Z,16.70
2018-04-11T18:03:31.330Z,16.60
2018-04-11T18:05:59.245Z,16.50
2018-04-11T18:08:26.772Z,16.30
2018-04-11T18:10:54.372Z,16.10
2018-04-11T18:13:22.662Z,15.90
2018-04-11T18:15:50.224Z,15.80
2018-04-11T18:18:18.507Z,15.60
2018-04-11T18:20:46.043Z,15.60
2018-04-11T18:23:15.547Z,15.40
2018-04-11T18:25:43.104Z,15.30
2018-04-11T18:28:10.687Z,15.30
2018-04-11T18:30:38.981Z,15.10
2018-04-11T18:33:06.533Z,15.10
2018-04-11T18:35:34.076Z,15.10
2018-04-11T18:38:02.358Z,15.00
2018-04-11T18:40:30.687Z,14.90
2018-04-11T18:42:58.798Z,14.90
2018-04-11T18:45:27.084Z,14.70
2018-04-11T18:47:55.184Z,14.70
2018-04-11T18:50:22.713Z,14.70
2018-04-11T18:52:51.026Z,14.70
2018-04-11T18:55:18.578Z,14.60
2018-04-11T18:57:46.130Z,14.70
2018-04-11T19:00:13.665Z,14.80
2018-04-11T19:02:41.961Z,15.00
2018-04-11T19:05:09.541Z,15.00
2018-04-11T19:07:38.020Z,15.00
2018-04-11T19:10:05.628Z,15.10
2018-04-11T19:12:33.149Z,15.10
2018-04-11T19:15:00.681Z,15.10
2018-04-11T19:17:28.228Z,15.10
2018-04-11T19:19:55.748Z,15.10
2018-04-11T19:22:23.343Z,15.10
2018-04-11T19:24:50.879Z,15.10
2018-04-11T19:27:19.238Z,15.10
2018-04-11T19:29:47.549Z,15.10
2018-04-11T19:32:15.085Z,15.10
2018-04-11T19:34:42.678Z,15.00
2018-04-11T19:37:11.921Z,15.00
2018-04-11T19:39:39.452Z,14.90
2018-04-11T19:42:07.049Z,14.90
2018-04-11T19:44:34.589Z,14.80
2018-04-11T19:47:02.149Z,14.80
2018-04-11T19:49:30.676Z,14.80
2018-04-11T19:51:58.987Z,14.70
2018-04-11T19:54:26.561Z,14.70
2018-04-11T19:56:54.097Z,14.80
2018-04-11T19:59:21.688Z,14.90
2018-04-11T20:01:49.216Z,15.00
2018-04-11T20:04:16.747Z,15.00
2018-04-11T20:06:45.074Z,15.00
2018-04-11T20:09:12.603Z,15.00
2018-04-11T20:11:40.124Z,15.10
2018-04-11T20:14:07.685Z,15.20
2018-04-11T20:16:35.221Z,15.30
2018-04-11T20:19:03.731Z,15.50
2018-04-11T20:21:32.042Z,15.60
2018-04-11T20:23:59.590Z,15.60
2018-04-11T20:26:27.134Z,15.70
2018-04-11T20:28:54.669Z,15.80
2018-04-11T20:31:22.225Z,15.80
2018-04-11T20:33:49.755Z,15.80
2018-04-11T20:36:17.297Z,15.80
2018-04-11T20:38:44.848Z,15.80
2018-04-11T20:41:12.373Z,15.80
2018-04-11T20:43:40.684Z,15.80
2018-04-11T20:46:08.221Z,15.80
2018-04-11T20:48:36.535Z,15.80
2018-04-11T20:51:04.055Z,15.70
2018-04-11T20:53:32.549Z,15.60
2018-04-11T20:56:00.080Z,15.60
2018-04-11T20:58:27.605Z,15.60
2018-04-11T21:00:55.145Z,15.60
2018-04-11T21:03:22.779Z,15.50
2018-04-11T21:05:51.137Z,15.60
2018-04-11T21:08:18.665Z,15.50
2018-04-11T21:10:46.189Z,15.60
2018-04-11T21:13:13.740Z,15.60
2018-04-11T21:15:42.212Z,15.50
2018-04-11T21:18:10.517Z,15.30
2018-04-11T21:20:38.051Z,15.30
2018-04-11T21:23:06.369Z,15.30
2018-04-11T21:25:33.897Z,15.40
2018-04-11T21:28:01.447Z,15.30
2018-04-11T21:30:29.016Z,15.30
2018-04-11T21:32:57.497Z,15.20
2018-04-11T21:35:25.057Z,15.10
2018-04-11T21:37:52.585Z,15.00
2018-04-11T21:40:20.176Z,15.00
2018-04-11T21:42:47.701Z,14.90
2018-04-11T21:45:15.229Z,14.80
2018-04-11T21:47:42.789Z,14.70
2018-04-11T21:50:10.313Z,14.60
2018-04-11T21:52:37.867Z,14.50
2018-04-11T21:55:05.881Z,14.40
2018-04-11T21:57:33.400Z,14.30
2018-04-11T22:00:00.981Z,14.20
2018-04-11T22:02:28.510Z,14.20
2018-04-11T22:04:56.061Z,14.20
2018-04-11T22:07:24.387Z,14.10
2018-04-11T22:09:51.892Z,14.10
2018-04-11T22:12:19.448Z,14.10
2018-04-11T22:14:47.742Z,14.10
2018-04-11T22:17:15.298Z,14.10
2018-04-11T22:19:42.829Z,14.10
2018-04-11T22:22:10.353Z,14.20
2018-04-11T22:24:38.845Z,14.40
2018-04-11T22:27:06.361Z,14.60
2018-04-11T22:29:33.921Z,14.70
2018-04-11T22:32:01.447Z,14.80
2018-04-11T22:34:29.560Z,14.70
2018-04-11T22:36:57.110Z,14.70
2018-04-11T22:39:25.593Z,14.70
2018-04-11T22:41:53.164Z,14.80
2018-04-11T22:44:20.692Z,14.80
2018-04-11T22:46:48.217Z,14.80
2018-04-11T22:49:15.796Z,14.90
2018-04-11T22:51:43.329Z,14.90
2018-04-11T22:54:10.888Z,14.90
2018-04-11T22:56:38.541Z,14.90
2018-04-11T22:59:06.065Z,14.90
2018-04-11T23:01:34.591Z,14.90
2018-04-11T23:04:02.141Z,14.90
2018-04-11T23:06:29.660Z,14.90
2018-04-11T23:08:57.184Z,14.90
2018-04-11T23:11:24.745Z,14.80
2018-04-11T23:13:52.269Z,14.90
2018-04-11T23:16:19.821Z,14.90
2018-04-11T23:18:47.361Z,14.90
2018-04-11T23:21:15.842Z,14.90
2018-04-11T23:23:43.392Z,15.00
2018-04-11T23:26:10.929Z,14.90
2018-04-11T23:28:39.249Z,14.80
2018-04-11T23:31:06.772Z,14.80
2018-04-11T23:33:34.307Z,14.90
2018-04-11T23:36:02.893Z,14.80
2018-04-11T23:38:31.221Z,14.70
2018-04-11T23:40:58.777Z,14.70
2018-04-11T23:43:26.297Z,14.70
2018-04-11T23:45:56.568Z,14.70
2018-04-11T23:48:24.099Z,14.70
2018-04-11T23:50:51.652Z,14.70
2018-04-11T23:53:19.181Z,14.70
2018-04-11T23:55:47.497Z,14.60
2018-04-11T23:58:15.016Z,14.60
